Time;durP1;ratioP1;P1;durP2;ratioP2;P2;SDS_P1;SDS_P2;PMS_P1;PMS_P2;Temp;Humidity;BMP_temperature;BMP_pressure;BME280_temperature;BME280_humidity;BME280_pressure;Samples;Min_cycle;Max_cycle;Signal;HPM_P1;HPM_P2
2022/02/10 00:03:47;;;;;;;20.60;18.65;;;;;;;5.93;100.00;99749.25;2090847;28;20183;-69
2022/02/10 00:16:06;;;;;;;21.27;19.15;;;;;;;5.92;100.00;99748.47;2073841;28;20603;-70
2022/02/10 00:17:29;;;;;;;20.20;18.23;;;;;;;5.92;100.00;99737.06;2081421;28;20673;-69
2022/02/10 00:18:56;;;;;;;21.13;19.08;;;;;;;5.97;100.00;99738.97;2090816;28;20181;-69
2022/02/10 00:20:16;;;;;;;20.85;18.85;;;;;;;5.95;100.00;99736.56;2090056;28;20280;-70
2022/02/10 00:21:27;;;;;;;20.50;18.80;;;;;;;5.92;100.00;99732.56;2083681;28;20227;-69
2022/02/10 00:22:41;;;;;;;20.38;18.58;;;;;;;5.97;100.00;99737.09;2082854;28;20823;-70
2022/02/10 00:24:05;;;;;;;21.05;19.08;;;;;;;5.98;100.00;99746.66;2083543;28;20234;-69
2022/02/10 00:34:08;;;;;;;21.40;19.27;;;;;;;5.93;100.00;99742.13;2090694;28;20198;-69
2022/02/10 00:35:17;;;;;;;21.25;19.15;;;;;;;5.99;100.00;99737.66;2090536;28;20577;-69
2022/02/10 00:36:24;;;;;;;21.25;19.20;;;;;;;6.00;100.00;99733.97;2088915;28;20257;-69
2022/02/10 00:37:49;;;;;;;21.23;19.17;;;;;;;5.95;100.00;99733.91;2082974;28;20666;-69
2022/02/10 00:39:07;;;;;;;20.02;18.33;;;;;;;5.96;100.00;99743.47;2090435;28;20254;-69
2022/02/10 00:40:16;;;;;;;21.85;19.77;;;;;;;5.92;100.00;99737.88;2089659;28;20198;-69
2022/02/10 00:41:19;;;;;;;21.38;19.42;;;;;;;5.93;100.00;99743.97;2090119;28;20197;-69
2022/02/10 00:42:24;;;;;;;21.45;19.35;;;;;;;5.91;100.00;99736.28;2088969;28;20600;-69
2022/02/10 00:43:27;;;;;;;21.00;19.17;;;;;;;5.93;100.00;99734.16;2081959;28;20600;-70
2022/02/10 00:44:30;;;;;;;21.42;19.52;;;;;;;5.91;100.00;99736.28;2090120;28;20718;-69
2022/02/10 00:45:37;;;;;;;22.02;19.92;;;;;;;5.92;100.00;99737.06;2089542;28;20253;-69
2022/02/10 00:46:40;;;;;;;21.42;19.42;;;;;;;5.91;100.00;99738.91;2082260;28;20701;-69
2022/02/10 00:47:53;;;;;;;20.65;18.80;;;;;;;5.85;100.00;99734.56;2090040;28;20193;-69
2022/02/10 00:48:57;;;;;;;20.05;18.40;;;;;;;5.91;100.00;99736.28;2089352;28;20280;-70
2022/02/10 00:50:02;;;;;;;20.63;18.77;;;;;;;5.93;100.00;99733.38;2090001;28;20194;-69
2022/02/10 00:51:05;;;;;;;21.73;19.58;;;;;;;5.92;100.00;99735.22;2089441;28;20668;-69
2022/02/10 00:52:09;;;;;;;20.63;18.65;;;;;;;5.91;100.00;99736.28;2081688;28;20223;-69
2022/02/10 00:53:18;;;;;;;19.95;18.05;;;;;;;5.89;100.00;99730.38;2090223;28;20183;-69
2022/02/10 00:54:26;;;;;;;20.77;18.92;;;;;;;5.90;100.00;99733.81;2090586;28;20195;-70
2022/02/10 00:55:31;;;;;;;20.17;18.40;;;;;;;5.91;100.00;99744.22;2090683;28;20217;-69
2022/02/10 00:56:35;;;;;;;20.10;18.30;;;;;;;5.88;100.00;99741.22;2090593;28;20243;-69
2022/02/10 00:57:39;;;;;;;21.08;19.05;;;;;;;5.89;100.00;99740.97;2090465;28;20282;-69
2022/02/10 00:58:44;;;;;;;21.00;19.25;;;;;;;5.85;100.00;99737.22;2089896;28;20191;-69
2022/02/10 01:00:02;;;;;;;20.98;19.02;;;;;;;5.88;100.00;99735.91;2090056;28;20289;-69
2022/02/10 01:07:00;;;;;;;20.08;18.27;;;;;;;5.88;100.00;99730.63;2089795;28;20327;-69
2022/02/10 01:11:12;;;;;;;21.80;19.65;;;;;;;5.87;100.00;99721.09;2087230;28;20618;-69
2022/02/10 01:12:29;;;;;;;21.08;19.17;;;;;;;5.87;100.00;99723.72;2089972;28;20214;-70
2022/02/10 01:13:47;;;;;;;22.13;19.92;;;;;;;5.82;100.00;99719.19;2089893;28;20657;-69
2022/02/10 01:29:31;;;;;;;21.65;19.65;;;;;;;5.83;100.00;99720.00;2090047;28;20190;-69
2022/02/10 01:30:01;;;;;;;22.02;19.50;;;;;;;5.80;100.00;99709.88;2090014;28;20198;-69
2022/02/10 01:31:04;;;;;;;21.50;19.65;;;;;;;5.79;100.00;99721.53;2088771;28;20313;-69
2022/02/10 01:32:09;;;;;;;21.40;19.35;;;;;;;5.78;100.00;99712.78;2081250;28;20661;-69
2022/02/10 01:33:12;;;;;;;21.15;19.25;;;;;;;5.77;100.00;99705.09;2089807;28;20661;-70
2022/02/10 01:34:17;;;;;;;21.33;19.13;;;;;;;5.80;100.00;99715.97;2090572;28;20214;-70
2022/02/10 01:35:21;;;;;;;21.48;19.50;;;;;;;5.76;100.00;99706.16;2088806;28;20202;-69
2022/02/10 01:36:27;;;;;;;21.08;19.10;;;;;;;5.76;100.00;99706.16;2081326;28;20223;-69
2022/02/10 01:37:31;;;;;;;21.30;19.60;;;;;;;5.77;100.00;99708.53;2081805;28;20249;-69
2022/02/10 01:38:38;;;;;;;21.08;18.98;;;;;;;5.78;100.00;99704.03;2081497;28;20199;-69
2022/02/10 01:39:46;;;;;;;21.17;19.27;;;;;;;5.76;100.00;99711.44;2089873;28;20704;-69
2022/02/10 01:41:20;;;;;;;20.88;18.90;;;;;;;5.72;100.00;99694.44;2090450;28;20205;-69
2022/02/10 01:58:01;;;;;;;20.02;18.33;;;;;;;5.62;100.00;99689.81;2040580;29;20202;-69
2022/02/10 02:03:25;;;;;;;20.52;18.60;;;;;;;5.63;100.00;99689.56;2090485;28;20171;-69
2022/02/10 02:04:29;;;;;;;20.80;18.95;;;;;;;5.64;100.00;99687.72;2090385;28;20175;-69
2022/02/10 02:05:38;;;;;;;21.55;19.55;;;;;;;5.64;100.00;99690.38;2090094;28;20230;-70
2022/02/10 02:06:45;;;;;;;20.48;18.67;;;;;;;5.67;100.00;99697.84;2090023;28;20280;-69
2022/02/10 02:07:50;;;;;;;20.48;18.30;;;;;;;5.65;100.00;99695.44;2090531;28;20505;-69
2022/02/10 02:08:54;;;;;;;20.63;18.63;;;;;;;5.68;100.00;99691.50;2089134;28;20269;-69
2022/02/10 02:09:56;;;;;;;21.08;18.98;;;;;;;5.77;100.00;99697.16;2089971;28;20194;-69
2022/02/10 02:11:01;;;;;;;21.15;18.92;;;;;;;5.68;100.00;99689.66;2090357;28;20641;-69
2022/02/10 02:12:07;;;;;;;21.02;19.13;;;;;;;5.71;100.00;99696.28;2090270;28;20266;-70
2022/02/10 02:13:11;;;;;;;20.45;18.75;;;;;;;5.72;100.00;99691.78;2090398;28;20171;-70
2022/02/10 02:14:17;;;;;;;20.70;18.73;;;;;;;5.70;100.00;99685.94;2088478;28;20704;-69
2022/02/10 02:15:28;;;;;;;21.23;19.40;;;;;;;5.69;100.00;99690.44;2090010;28;20202;-69
2022/02/10 02:16:30;;;;;;;20.00;18.40;;;;;;;5.68;100.00;99694.13;2089583;28;20237;-69
2022/02/10 02:17:33;;;;;;;21.13;19.00;;;;;;;5.67;100.00;99692.53;2089692;28;20187;-69
2022/02/10 02:18:35;;;;;;;21.83;19.95;;;;;;;5.68;100.00;99689.66;2090375;28;20210;-69
2022/02/10 02:19:41;;;;;;;21.67;19.88;;;;;;;5.75;100.00;99688.66;2089093;28;20567;-70
2022/02/10 02:20:51;;;;;;;21.60;19.58;;;;;;;5.73;100.00;99688.88;2081571;28;20298;-70
2022/02/10 02:22:01;;;;;;;21.88;19.60;;;;;;;5.74;100.00;99693.16;2089337;28;20222;-69
2022/02/10 02:23:02;;;;;;;22.30;19.65;;;;;;;5.75;100.00;99691.31;2089231;28;20210;-69
2022/02/10 02:24:07;;;;;;;21.83;19.92;;;;;;;5.78;100.00;99698.75;2080895;28;20196;-69
2022/02/10 02:25:12;;;;;;;21.55;19.65;;;;;;;5.76;100.00;99688.41;2089656;28;20242;-69
2022/02/10 02:26:23;;;;;;;22.35;20.25;;;;;;;5.76;100.00;99691.06;2089463;28;20214;-69
2022/02/10 02:27:26;;;;;;;21.42;19.15;;;;;;;5.67;100.00;99685.41;2082602;28;20191;-69
2022/02/10 02:28:33;;;;;;;21.15;19.02;;;;;;;5.65;100.00;99690.16;2089748;28;20278;-69
2022/02/10 02:29:39;;;;;;;21.27;19.38;;;;;;;5.63;100.00;99697.50;2090198;28;20661;-69
2022/02/10 02:30:46;;;;;;;21.65;19.73;;;;;;;5.62;100.00;99687.97;2090419;28;20336;-69
2022/02/10 02:31:54;;;;;;;21.95;20.05;;;;;;;5.62;100.00;99685.34;2091411;28;20172;-69
2022/02/10 02:33:31;;;;;;;21.98;19.88;;;;;;;5.62;100.00;99687.97;2091991;28;20179;-69
2022/02/10 02:35:09;;;;;;;21.35;19.35;;;;;;;5.60;100.00;99687.44;2091737;28;20198;-69
2022/02/10 02:36:55;;;;;;;20.98;19.17;;;;;;;5.61;100.00;99683.72;2091278;28;20183;-69
2022/02/10 02:38:06;;;;;;;22.08;20.05;;;;;;;5.61;100.00;99677.66;2090439;28;20214;-69
2022/02/10 03:05:23;;;;;;;22.02;20.00;;;;;;;5.46;100.00;99680.09;2070507;28;20203;-69
2022/02/10 03:06:32;;;;;;;21.70;19.92;;;;;;;5.44;100.00;99680.38;2073679;28;20247;-69
2022/02/10 03:07:41;;;;;;;22.08;20.17;;;;;;;5.45;100.00;99683.81;2074285;28;20180;-69
2022/02/10 03:08:56;;;;;;;22.35;20.20;;;;;;;5.47;100.00;99677.22;2066041;28;20554;-69
2022/02/10 03:10:21;;;;;;;21.45;19.55;;;;;;;5.44;100.00;99677.72;2068087;28;20597;-69
2022/02/10 03:11:25;;;;;;;21.77;19.75;;;;;;;5.43;100.00;99678.75;2087496;28;20248;-69
2022/02/10 03:12:27;;;;;;;22.10;19.88;;;;;;;5.45;100.00;99681.97;2082848;28;20704;-69
2022/02/10 03:13:34;;;;;;;21.27;19.20;;;;;;;5.47;100.00;99681.69;2090907;28;20278;-69
2022/02/10 03:14:45;;;;;;;20.75;18.85;;;;;;;5.46;100.00;99674.81;2090476;28;20781;-69
2022/02/10 03:16:00;;;;;;;21.60;19.55;;;;;;;5.48;100.00;99681.47;2083806;28;20250;-70
2022/02/10 03:18:39;;;;;;;20.95;19.10;;;;;;;5.46;100.00;99675.63;2065767;28;20209;-73
2022/02/10 03:19:55;;;;;;;20.48;18.73;;;;;;;5.50;100.00;99689.16;2091411;28;20274;-70
2022/02/10 03:21:25;;;;;;;20.45;18.65;;;;;;;5.52;100.00;99679.13;2090211;28;20202;-69
2022/02/10 03:22:43;;;;;;;21.08;19.08;;;;;;;5.53;100.00;99689.47;2089886;28;20289;-69
2022/02/10 04:02:07;;;;;;;23.42;21.13;;;;;;;5.44;100.00;99655.75;2090707;28;20204;-70
2022/02/10 04:03:29;;;;;;;22.05;19.95;;;;;;;5.47;100.00;99656.03;2089542;28;20322;-69
2022/02/10 04:05:04;;;;;;;22.80;20.50;;;;;;;5.46;100.00;99654.44;2090758;28;20175;-69
2022/02/10 04:07:52;;;;;;;22.05;19.85;;;;;;;5.47;100.00;99655.25;2057417;28;20201;-69
2022/02/10 04:13:15;;;;;;;22.70;20.70;;;;;;;5.54;100.00;99661.94;2085680;28;20199;-69
2022/02/10 04:14:25;;;;;;;24.48;22.17;;;;;;;5.54;100.00;99656.66;2091231;28;20186;-70
2022/02/10 04:15:34;;;;;;;23.35;21.30;;;;;;;5.57;100.00;99658.03;2090131;28;20226;-69
2022/02/10 04:16:43;;;;;;;24.02;21.80;;;;;;;5.58;100.00;99656.97;2090401;28;20277;-69
2022/02/10 04:18:06;;;;;;;24.20;21.80;;;;;;;5.57;100.00;99650.88;2089817;28;20198;-69
2022/02/10 04:21:55;;;;;;;23.23;20.85;;;;;;;5.57;100.00;99658.81;2094731;28;20225;-70
2022/02/10 04:23:10;;;;;;;23.05;20.83;;;;;;;5.57;100.00;99656.19;2096915;28;20591;-70
2022/02/10 04:24:27;;;;;;;23.35;21.13;;;;;;;5.53;100.00;99646.31;2090182;28;20233;-69
2022/02/10 04:25:45;;;;;;;22.77;20.40;;;;;;;5.53;100.00;99648.97;2090473;28;20179;-70
2022/02/10 04:26:57;;;;;;;23.27;20.98;;;;;;;5.48;100.00;99652.38;2090894;28;20237;-69
2022/02/10 04:28:13;;;;;;;24.15;21.80;;;;;;;5.47;100.00;99650.75;2090113;28;20226;-69
2022/02/10 04:38:11;;;;;;;24.23;22.08;;;;;;;5.49;100.00;99647.88;2090012;28;20201;-69
2022/02/10 04:43:46;;;;;;;23.42;21.27;;;;;;;5.52;100.00;99652.66;2085389;28;20202;-69
2022/02/10 04:53:01;;;;;;;23.35;21.10;;;;;;;5.52;100.00;99648.16;2090091;28;20234;-69
2022/02/10 04:54:09;;;;;;;23.27;20.85;;;;;;;5.47;100.00;99639.38;2090802;28;20190;-68
2022/02/10 04:55:45;;;;;;;24.05;21.52;;;;;;;5.42;100.00;99636.69;2090402;28;20653;-68
2022/02/10 04:57:12;;;;;;;24.85;22.45;;;;;;;5.42;100.00;99636.69;2089962;28;20759;-68
2022/02/10 04:58:36;;;;;;;23.08;21.00;;;;;;;5.39;100.00;99644.06;2084546;28;20736;-69
2022/02/10 05:01:17;;;;;;;24.65;22.23;;;;;;;5.38;100.00;99645.09;2089382;28;20226;-69
2022/02/10 05:04:19;;;;;;;25.05;21.95;;;;;;;5.38;100.00;99636.34;2084235;28;20192;-69
2022/02/10 05:07:18;;;;;;;24.80;22.27;;;;;;;5.38;100.00;99646.94;2090106;28;20710;-68
2022/02/10 05:08:42;;;;;;;24.70;22.15;;;;;;;5.35;100.00;99629.72;2090545;28;20187;-69
2022/02/10 05:16:53;;;;;;;24.17;21.77;;;;;;;5.41;100.00;99632.44;2057109;28;20201;-69
2022/02/10 05:18:10;;;;;;;23.75;21.25;;;;;;;5.38;100.00;99631.06;2089853;28;20199;-70
2022/02/10 05:23:56;;;;;;;24.20;21.75;;;;;;;5.37;100.00;99632.91;2120218;28;20284;-68
2022/02/10 05:32:11;;;;;;;23.77;21.63;;;;;;;5.33;100.00;99634.47;2122973;28;20539;-68
2022/02/10 05:34:54;;;;;;;24.80;22.45;;;;;;;5.34;100.00;99635.25;2083717;28;20214;-69
2022/02/10 05:36:01;;;;;;;23.85;21.17;;;;;;;5.35;100.00;99632.38;2078230;28;20298;-68
2022/02/10 05:37:05;;;;;;;24.15;21.85;;;;;;;5.35;100.00;99635.00;2079136;28;20635;-69
2022/02/10 05:38:15;;;;;;;23.60;21.30;;;;;;;5.30;100.00;99634.97;2097579;28;20174;-69
2022/02/10 05:39:21;;;;;;;22.98;20.70;;;;;;;5.30;100.00;99634.97;2096757;28;20255;-69
2022/02/10 05:40:51;;;;;;;25.55;21.77;;;;;;;5.28;100.00;99634.41;2089236;28;20624;-69
2022/02/10 05:43:29;;;;;;;23.15;21.02;;;;;;;5.27;100.00;99627.50;2080272;28;20201;-69
2022/02/10 05:44:46;;;;;;;22.95;20.85;;;;;;;5.27;100.00;99639.94;2096802;28;20281;-68
2022/02/10 05:46:04;;;;;;;23.35;20.92;;;;;;;5.28;100.00;99628.31;2098652;28;20206;-69
2022/02/10 05:48:45;;;;;;;23.15;20.88;;;;;;;5.33;100.00;99638.97;2083671;28;20248;-68
2022/02/10 05:50:31;;;;;;;23.33;21.17;;;;;;;5.34;100.00;99644.00;2090666;28;20229;-68
2022/02/10 05:52:17;;;;;;;24.23;20.35;;;;;;;5.35;100.00;99642.94;2093827;28;20249;-68
2022/02/10 05:54:50;;;;;;;22.30;20.23;;;;;;;5.39;100.00;99643.28;2098104;28;20260;-69
2022/02/10 05:56:06;;;;;;;24.15;20.38;;;;;;;5.42;100.00;99648.06;2103725;28;20193;-69
2022/02/10 05:57:29;;;;;;;23.30;21.05;;;;;;;5.40;100.00;99650.16;2096605;28;20206;-69
2022/02/10 05:58:34;;;;;;;23.38;21.17;;;;;;;5.39;100.00;99640.63;2097015;28;20539;-68
2022/02/10 06:02:44;;;;;;;23.90;21.55;;;;;;;5.39;100.00;99643.28;2097201;28;20749;-69
2022/02/10 06:49:01;;;;;;;22.10;19.92;;;;;;;5.52;100.00;99650.81;2061242;28;20639;-69
2022/02/10 06:50:30;;;;;;;22.58;20.48;;;;;;;5.54;100.00;99648.72;2062081;28;20259;-69
2022/02/10 06:51:42;;;;;;;22.63;20.42;;;;;;;5.53;100.00;99652.41;2069361;28;20733;-68
2022/02/10 06:53:07;;;;;;;21.98;20.08;;;;;;;5.54;100.00;99648.72;2076915;28;20298;-68
2022/02/10 06:54:25;;;;;;;22.80;20.60;;;;;;;5.57;100.00;99656.19;2091039;28;20537;-69
2022/02/10 06:58:40;;;;;;;22.63;20.38;;;;;;;5.60;100.00;99650.38;2090679;28;20257;-68
2022/02/10 07:04:02;;;;;;;22.83;20.63;;;;;;;5.62;100.00;99636.88;2091499;28;20171;-69
2022/02/10 07:05:32;;;;;;;21.65;19.67;;;;;;;5.65;100.00;99642.50;2090679;28;20206;-68
2022/02/10 07:06:54;;;;;;;20.83;19.05;;;;;;;5.65;100.00;99645.16;2090481;28;20227;-69
2022/02/10 07:09:31;;;;;;;21.17;19.17;;;;;;;5.72;100.00;99647.56;2088325;28;20207;-68
2022/02/10 07:12:15;;;;;;;21.65;19.75;;;;;;;5.76;100.00;99640.75;2084507;28;20221;-68
2022/02/10 07:15:11;;;;;;;20.73;19.08;;;;;;;5.80;100.00;99636.53;2091146;28;20183;-68
2022/02/10 07:48:20;;;;;;;22.02;20.05;;;;;;;6.52;100.00;99619.44;2090024;28;20718;-70
2022/02/10 07:49:50;;;;;;;22.00;20.00;;;;;;;6.57;100.00;99623.94;2089681;28;20256;-70
2022/02/10 07:52:34;;;;;;;21.77;19.70;;;;;;;6.61;100.00;99625.84;2087613;28;20735;-67
2022/02/10 07:56:37;;;;;;;24.42;21.10;;;;;;;6.66;100.00;99623.22;2099126;28;20194;-70
2022/02/10 07:57:46;;;;;;;21.85;19.75;;;;;;;6.68;100.00;99626.41;2098474;28;20226;-71
2022/02/10 07:59:14;;;;;;;22.92;20.75;;;;;;;6.72;100.00;99627.50;2098659;28;20171;-71
2022/02/10 08:00:53;;;;;;;22.95;20.52;;;;;;;6.73;100.00;99621.13;2099411;28;20179;-71
2022/02/10 08:05:04;;;;;;;22.05;20.15;;;;;;;6.81;100.00;99622.50;2098023;28;20190;-71
2022/02/10 08:50:03;;;;;;;26.73;22.80;;;;;;;7.57;100.00;99598.91;2089548;28;20294;-69
2022/02/10 08:55:41;;;;;;;25.20;22.58;;;;;;;7.60;100.00;99598.38;2067715;28;20259;-69
2022/02/10 08:56:52;;;;;;;25.95;22.08;;;;;;;7.64;100.00;99594.16;2064846;28;20192;-68
2022/02/10 09:02:25;;;;;;;29.17;22.70;;;;;;;7.72;100.00;99592.81;2061577;28;20308;-68
2022/02/10 09:03:38;;;;;;;25.13;22.00;;;;;;;7.74;100.00;99589.91;2090354;28;20297;-68
2022/02/10 09:04:50;;;;;;;25.08;21.75;;;;;;;7.79;100.00;99595.22;2089028;28;20203;-68
2022/02/10 09:06:04;;;;;;;24.75;22.10;;;;;;;7.81;100.00;99588.56;2090022;28;20684;-68
2022/02/10 09:07:43;;;;;;;24.10;21.52;;;;;;;7.87;100.00;99589.38;2090270;28;20207;-69
2022/02/10 09:09:34;;;;;;;24.17;21.83;;;;;;;7.94;100.00;99588.06;2089457;28;20226;-69
2022/02/10 09:12:18;;;;;;;23.88;21.48;;;;;;;8.05;100.00;99588.84;2076555;28;20206;-68
2022/02/10 09:13:39;;;;;;;22.90;20.60;;;;;;;8.10;100.00;99585.41;2090061;28;20187;-69
2022/02/10 09:15:18;;;;;;;22.88;20.70;;;;;;;8.18;100.00;99585.69;2097662;28;20726;-77
2022/02/10 09:16:53;;;;;;;22.00;19.63;;;;;;;8.23;100.00;99595.50;2093215;28;20657;-73
2022/02/10 09:48:18;;;;;;;19.20;17.60;;;;;;;8.95;100.00;99590.88;2089856;28;20632;-74
2022/02/10 09:53:29;;;;;;;18.67;17.05;;;;;;;9.00;100.00;99583.66;2089826;28;20692;-74
2022/02/10 09:57:20;;;;;;;18.33;16.92;;;;;;;9.05;100.00;99580.19;2049022;28;20211;-74
2022/02/10 10:00:02;;;;;;;19.27;17.67;;;;;;;9.02;100.00;99592.16;2064314;28;20212;-74
2022/02/10 10:01:16;;;;;;;18.13;16.83;;;;;;;8.95;100.00;99581.03;2071172;28;20202;-74
2022/02/10 10:02:29;;;;;;;18.58;17.02;;;;;;;8.96;100.00;99582.59;2089722;28;20198;-74
2022/02/10 10:03:39;;;;;;;19.15;17.65;;;;;;;9.00;100.00;99586.31;2090221;28;20171;-74
2022/02/10 10:04:55;;;;;;;19.50;17.70;;;;;;;9.00;100.00;99575.66;2089575;28;20187;-74
2022/02/10 10:06:02;;;;;;;18.73;17.13;;;;;;;9.06;100.00;99579.09;2089431;28;20210;-74
2022/02/10 10:07:23;;;;;;;20.17;18.38;;;;;;;9.12;100.00;99583.34;2089515;28;20240;-74
2022/02/10 10:08:37;;;;;;;18.90;17.30;;;;;;;9.14;100.00;99578.53;2084491;28;20188;-74
2022/02/10 10:09:48;;;;;;;18.85;17.30;;;;;;;9.19;100.00;99564.41;2084236;28;20198;-75
2022/02/10 10:11:25;;;;;;;19.98;17.95;;;;;;;9.30;100.00;99571.28;2091533;28;20171;-75
2022/02/10 10:14:10;;;;;;;18.77;17.38;;;;;;;9.45;100.00;99565.84;2074464;28;20577;-74
2022/02/10 10:16:51;;;;;;;19.17;17.45;;;;;;;9.52;100.00;99557.56;2091558;28;20199;-75
2022/02/10 10:19:51;;;;;;;19.92;18.08;;;;;;;9.70;100.00;99564.88;2091591;28;20174;-75
2022/02/10 10:21:04;;;;;;;19.48;17.88;;;;;;;9.71;100.00;99565.69;2091028;28;20645;-74
2022/02/10 10:22:21;;;;;;;19.40;17.52;;;;;;;9.71;100.00;99560.34;2090490;28;20317;-74
2022/02/10 10:23:41;;;;;;;20.02;17.98;;;;;;;9.83;100.00;99564.28;2091605;28;20201;-74
2022/02/10 10:25:10;;;;;;;19.05;17.58;;;;;;;9.85;100.00;99556.00;2091016;28;20191;-74
2022/02/10 10:26:37;;;;;;;19.00;17.50;;;;;;;9.82;100.00;99562.69;2086724;28;20203;-74
2022/02/10 10:51:10;;;;;;;18.67;17.27;;;;;;;9.60;98.83;99509.81;2091215;28;20199;-74
2022/02/10 10:52:42;;;;;;;18.38;16.58;;;;;;;9.56;98.26;99516.78;2091251;28;20240;-75
2022/02/10 10:53:50;;;;;;;19.17;17.50;;;;;;;9.58;99.24;99503.19;2099087;28;20194;-74
2022/02/10 10:55:10;;;;;;;19.38;17.65;;;;;;;9.60;99.90;99501.81;2098655;28;20325;-74
2022/02/10 10:56:19;;;;;;;19.27;17.75;;;;;;;9.58;97.66;99505.84;2098661;28;20711;-75
2022/02/10 10:57:28;;;;;;;19.50;17.67;;;;;;;9.56;97.80;99498.13;2098146;28;20232;-74
2022/02/10 10:58:37;;;;;;;19.52;17.92;;;;;;;9.58;99.64;99492.53;2090250;28;20249;-74
2022/02/10 10:59:53;;;;;;;19.23;17.65;;;;;;;9.73;96.59;99502.25;2091607;28;20290;-75
2022/02/10 11:22:51;;;;;;;19.73;18.15;;;;;;;9.77;92.67;99458.78;2075174;28;20215;-72
2022/02/10 11:38:20;;;;;;;18.92;17.42;;;;;;;9.77;92.37;99440.13;2069147;28;20224;-71
2022/02/10 11:39:43;;;;;;;18.70;17.08;;;;;;;9.65;94.28;99422.94;2071949;28;20227;-72
2022/02/10 11:41:27;;;;;;;19.17;17.58;;;;;;;9.69;93.43;99414.09;2066710;28;20356;-71
2022/02/10 11:42:40;;;;;;;19.17;17.67;;;;;;;9.68;94.31;99395.72;2072471;28;20200;-70
2022/02/10 11:43:48;;;;;;;19.40;17.80;;;;;;;9.89;93.38;99413.09;2072720;28;20271;-70
2022/02/10 11:46:59;;;;;;;18.30;16.70;;;;;;;9.92;92.15;99407.22;2067162;28;20236;-69
2022/02/10 12:37:44;;;;;;;20.77;18.83;;;;;;;11.42;81.71;99347.75;2076176;28;20653;-69
2022/02/10 12:42:03;;;;;;;20.98;19.10;;;;;;;11.55;80.61;99351.53;2080086;28;20211;-70
2022/02/10 13:27:40;;;;;;;17.85;16.58;;;;;;;11.13;82.79;99281.25;2095999;28;20205;-71
2022/02/10 13:48:05;;;;;;;18.88;17.38;;;;;;;10.59;86.18;99261.28;2096417;28;20194;-70
2022/02/10 14:09:31;;;;;;;20.38;18.30;;;;;;;11.14;84.24;99248.09;2093223;28;20202;-71
2022/02/10 14:13:25;;;;;;;19.77;17.45;;;;;;;10.94;86.36;99251.91;2093152;28;20656;-71
2022/02/10 14:14:35;;;;;;;19.30;17.60;;;;;;;10.92;86.83;99245.28;2097591;28;20200;-71
2022/02/10 14:15:55;;;;;;;18.83;17.23;;;;;;;10.90;87.41;99244.78;2091291;28;20198;-71
2022/02/10 14:17:00;;;;;;;18.73;17.10;;;;;;;10.91;87.49;99246.38;2090108;28;20206;-71
2022/02/10 14:18:23;;;;;;;19.05;17.45;;;;;;;10.94;87.60;99235.88;2090732;28;20653;-71
2022/02/10 14:19:37;;;;;;;18.17;16.63;;;;;;;10.97;87.47;99234.53;2091280;28;20178;-71
2022/02/10 14:20:54;;;;;;;18.38;16.70;;;;;;;10.99;87.37;99237.69;2090584;28;20671;-71
2022/02/10 14:22:06;;;;;;;20.20;18.40;;;;;;;10.99;87.86;99241.16;2084253;28;20579;-72
2022/02/10 14:23:29;;;;;;;21.02;18.40;;;;;;;11.01;87.75;99236.31;2091275;28;20182;-69
2022/02/10 14:25:58;;;;;;;19.58;17.88;;;;;;;11.00;87.82;99236.59;2081958;28;20784;-71
2022/02/10 14:27:01;;;;;;;18.70;17.20;;;;;;;10.97;88.12;99229.97;2075297;28;20634;-71
2022/02/10 14:28:03;;;;;;;18.98;17.33;;;;;;;11.04;88.51;99226.94;2074355;28;20231;-70
2022/02/10 14:29:05;;;;;;;19.02;17.52;;;;;;;11.19;88.34;99229.31;2082515;28;20199;-70
2022/02/10 14:30:09;;;;;;;20.50;17.85;;;;;;;11.26;87.61;99236.94;2091130;28;20218;-69
2022/02/10 14:31:11;;;;;;;20.48;18.42;;;;;;;11.27;86.87;99243.84;2091062;28;20194;-69
2022/02/10 14:32:18;;;;;;;20.02;18.20;;;;;;;11.31;86.81;99237.63;2081886;28;20219;-71
2022/02/10 14:33:24;;;;;;;18.75;17.25;;;;;;;11.35;86.76;99234.34;2082434;28;20219;-69
2022/02/10 14:34:28;;;;;;;19.27;17.67;;;;;;;11.32;86.53;99230.41;2083162;28;20199;-70
2022/02/10 14:35:36;;;;;;;19.27;17.52;;;;;;;11.22;87.03;99222.59;2081569;28;20211;-70
2022/02/10 14:36:44;;;;;;;19.17;17.67;;;;;;;11.19;87.68;99223.97;2088204;28;20298;-70
2022/02/10 14:38:09;;;;;;;19.40;17.75;;;;;;;11.14;88.13;99217.94;2091014;28;20282;-69
2022/02/10 14:39:26;;;;;;;19.48;17.55;;;;;;;11.09;88.37;99218.81;2091151;28;20614;-69
2022/02/10 14:40:54;;;;;;;18.67;16.85;;;;;;;11.07;88.57;99220.19;2091334;28;20182;-67
2022/02/10 14:43:31;;;;;;;20.67;17.45;;;;;;;10.94;89.14;99209.19;2091075;28;20205;-71
2022/02/10 15:11:54;;;;;;;19.73;17.92;;;;;;;9.80;100.00;99193.63;2065738;28;20308;-69
2022/02/10 15:21:28;;;;;;;18.98;17.27;;;;;;;9.68;100.00;99177.28;2090783;28;20207;-70
2022/02/10 15:30:22;;;;;;;19.00;17.20;;;;;;;9.45;100.00;99170.91;2089853;28;20187;-70
2022/02/10 15:46:25;;;;;;;17.90;16.60;;;;;;;9.15;100.00;99150.75;2089702;28;20190;-70
2022/02/10 15:51:48;;;;;;;18.73;17.10;;;;;;;8.95;100.00;99143.81;2088909;28;20688;-70
2022/02/10 15:53:10;;;;;;;18.95;17.20;;;;;;;8.90;100.00;99134.00;2090035;28;20283;-70
2022/02/10 15:54:31;;;;;;;18.63;17.02;;;;;;;8.82;100.00;99131.97;2089727;28;20653;-70
2022/02/10 16:14:58;;;;;;;19.50;17.60;;;;;;;8.42;100.00;99104.69;2084085;28;20194;-70
2022/02/10 16:17:22;;;;;;;19.38;17.63;;;;;;;8.31;100.00;99113.78;2090436;28;20191;-69
2022/02/10 16:18:30;;;;;;;19.83;18.08;;;;;;;8.25;100.00;99104.28;2090476;28;20179;-70
2022/02/10 16:19:36;;;;;;;19.27;17.65;;;;;;;8.21;100.00;99105.91;2089721;28;20191;-70
2022/02/10 16:20:37;;;;;;;19.35;17.38;;;;;;;8.21;100.00;99108.56;2090087;28;20279;-70
2022/02/10 16:21:44;;;;;;;19.27;17.33;;;;;;;8.17;100.00;99099.59;2089000;28;20221;-71
2022/02/10 16:22:59;;;;;;;19.90;17.88;;;;;;;8.22;100.00;99102.19;2089840;28;20191;-69
2022/02/10 16:24:05;;;;;;;18.90;17.40;;;;;;;8.19;100.00;99100.88;2090641;28;20179;-70
2022/02/10 16:25:10;;;;;;;19.30;17.38;;;;;;;8.19;100.00;99098.22;2089238;28;20737;-70
2022/02/10 16:26:16;;;;;;;18.92;17.33;;;;;;;8.18;100.00;99090.53;2082316;28;20287;-70
2022/02/10 16:27:23;;;;;;;18.58;16.95;;;;;;;8.15;100.00;99088.41;2089739;28;20688;-69
2022/02/10 16:28:30;;;;;;;19.10;17.33;;;;;;;8.18;100.00;99088.66;2090486;28;20271;-69
2022/02/10 16:29:33;;;;;;;19.95;18.25;;;;;;;8.18;100.00;99079.91;2090568;28;20189;-69
2022/02/10 16:30:38;;;;;;;19.55;17.75;;;;;;;8.17;100.00;99080.97;2090343;28;20191;-69
2022/02/10 16:31:40;;;;;;;19.48;17.65;;;;;;;8.16;100.00;99085.47;2090250;28;20681;-70
2022/02/10 16:32:45;;;;;;;19.13;17.23;;;;;;;8.12;100.00;99086.31;2090179;28;20291;-70
2022/02/10 16:33:48;;;;;;;19.70;17.77;;;;;;;8.10;100.00;99081.31;2090284;28;20603;-71
2022/02/10 16:34:50;;;;;;;19.02;17.33;;;;;;;8.07;100.00;99083.69;2089612;28;20198;-70
2022/02/10 16:35:53;;;;;;;19.52;17.63;;;;;;;8.05;100.00;99084.00;2089721;28;20198;-70
2022/02/10 16:37:01;;;;;;;19.75;17.20;;;;;;;8.14;100.00;99087.63;2089330;28;20297;-70
2022/02/10 16:38:03;;;;;;;19.17;17.38;;;;;;;8.13;100.00;99079.94;2088985;28;20232;-69
2022/02/10 16:39:07;;;;;;;19.02;17.35;;;;;;;8.13;100.00;99074.63;2081175;28;20222;-70
2022/02/10 16:40:14;;;;;;;19.30;17.52;;;;;;;8.15;100.00;99083.09;2081858;28;20293;-69
2022/02/10 16:41:17;;;;;;;18.98;17.17;;;;;;;8.15;100.00;99075.13;2089741;28;20191;-69
2022/02/10 16:42:22;;;;;;;18.48;16.90;;;;;;;8.16;100.00;99076.72;2090365;28;20594;-70
2022/02/10 16:43:27;;;;;;;19.52;17.52;;;;;;;8.16;100.00;99080.16;2090408;28;20167;-71
2022/02/10 16:44:31;;;;;;;19.48;17.73;;;;;;;8.19;100.00;99081.50;2089627;28;20256;-70
2022/02/10 16:45:34;;;;;;;20.20;18.10;;;;;;;8.19;100.00;99078.84;2089619;28;20217;-71
2022/02/10 16:46:39;;;;;;;19.40;17.60;;;;;;;8.26;100.00;99079.31;2089425;28;20209;-71
2022/02/10 16:47:44;;;;;;;20.00;17.90;;;;;;;8.26;100.00;99084.63;2089982;28;20557;-70